Time;durP1;ratioP1;P1;durP2;ratioP2;P2;SDS_P1;SDS_P2;PMS_P1;PMS_P2;Temp;Humidity;BMP_temperature;BMP_pressure;BME280_temperature;BME280_humidity;BME280_pressure;Samples;Min_cycle;Max_cycle;Signal;HPM_P1;HPM_P2
2021/09/11 00:07:57;;;;;;;18.50;13.00;;;;;;;11.98;64.21;99562.17;471493;1194;143608;-58
2021/09/11 00:18:01;;;;;;;16.80;11.60;;;;;;;11.82;64.36;99568.32;472576;1182;142576;-59
2021/09/11 00:28:05;;;;;;;13.20;11.20;;;;;;;11.57;64.55;99565.15;471950;1194;141641;-59
2021/09/11 00:38:08;;;;;;;21.50;13.20;;;;;;;11.33;64.90;99554.85;471578;1194;142848;-59
2021/09/11 00:48:12;;;;;;;14.80;10.50;;;;;;;11.15;65.55;99551.30;471907;1194;141836;-59
2021/09/11 00:58:15;;;;;;;15.90;11.70;;;;;;;10.99;65.68;99548.17;472359;1194;141759;-59
2021/09/11 01:08:18;;;;;;;17.60;13.30;;;;;;;10.85;66.09;99541.16;471539;1194;142608;-59
2021/09/11 01:18:22;;;;;;;17.10;15.30;;;;;;;10.80;66.71;99536.61;472318;1194;143104;-59
2021/09/11 01:28:28;;;;;;;21.50;15.50;;;;;;;10.91;67.09;99538.35;471944;1194;143090;-59
2021/09/11 01:38:32;;;;;;;17.50;13.90;;;;;;;11.05;67.21;99535.32;471146;1194;144668;-59
2021/09/11 01:48:36;;;;;;;17.20;12.60;;;;;;;11.09;67.04;99538.41;471832;1194;144484;-59
2021/09/11 01:58:39;;;;;;;18.40;13.20;;;;;;;10.91;67.11;99535.91;472219;1194;142238;-59
2021/09/11 02:08:42;;;;;;;17.80;13.00;;;;;;;10.86;67.20;99534.65;471084;1194;143221;-58
2021/09/11 02:18:46;;;;;;;17.50;12.70;;;;;;;10.73;67.29;99535.01;472204;1194;143723;-58
2021/09/11 02:28:49;;;;;;;18.70;15.50;;;;;;;10.60;67.25;99536.35;468318;1194;145991;-57
2021/09/11 02:38:53;;;;;;;18.40;13.30;;;;;;;10.57;68.06;99529.40;471948;1194;143103;-58
2021/09/11 02:48:57;;;;;;;15.80;13.40;;;;;;;10.57;68.22;99530.59;472604;1194;142446;-58
2021/09/11 02:59:00;;;;;;;14.10;11.80;;;;;;;10.53;68.43;99529.75;471734;1183;142864;-58
2021/09/11 03:09:04;;;;;;;16.00;12.80;;;;;;;10.46;68.43;99527.77;472347;1194;141915;-58
2021/09/11 03:19:07;;;;;;;18.20;14.90;;;;;;;10.41;68.71;99526.67;472671;1194;141733;-58
2021/09/11 03:29:10;;;;;;;20.00;14.60;;;;;;;10.44;68.97;99529.84;472105;1190;142380;-58
2021/09/11 03:39:13;;;;;;;17.50;13.20;;;;;;;10.36;69.02;99532.20;472226;1194;141303;-58
2021/09/11 03:49:17;;;;;;;18.20;13.50;;;;;;;10.29;69.52;99523.94;472467;1194;142043;-58
2021/09/11 03:59:21;;;;;;;17.00;15.10;;;;;;;10.27;69.60;99513.18;472152;1182;142301;-59
2021/09/11 04:09:24;;;;;;;21.00;14.70;;;;;;;10.22;69.67;99512.80;472485;1194;143275;-59
2021/09/11 04:19:28;;;;;;;17.20;14.20;;;;;;;10.26;69.95;99519.94;472705;1194;143871;-60
2021/09/11 04:29:31;;;;;;;17.10;14.60;;;;;;;10.35;70.18;99519.66;472169;1191;142184;-59
2021/09/11 04:39:34;;;;;;;17.20;14.50;;;;;;;10.61;69.63;99521.23;472856;1194;141502;-58
2021/09/11 04:49:38;;;;;;;20.80;15.50;;;;;;;10.85;69.25;99523.33;472769;1194;142402;-58
2021/09/11 04:59:41;;;;;;;22.30;17.00;;;;;;;11.32;69.10;99519.14;460908;1194;141927;-57
2021/09/11 05:09:44;;;;;;;17.80;13.90;;;;;;;11.98;68.73;99514.95;472738;1194;141954;-59
2021/09/11 05:19:47;;;;;;;18.20;14.30;;;;;;;14.24;66.51;99516.67;471857;1194;143163;-59
2021/09/11 05:29:50;;;;;;;14.00;12.20;;;;;;;18.63;62.17;99525.26;472858;1182;142428;-60
2021/09/11 05:39:53;;;;;;;13.50;10.90;;;;;;;24.92;53.40;99521.22;470919;1191;142251;-60
2021/09/11 05:49:57;;;;;;;12.80;11.10;;;;;;;30.18;45.13;99505.83;465562;1194;141787;-61
2021/09/11 06:00:00;;;;;;;12.20;10.10;;;;;;;33.75;37.86;99512.99;472587;1194;144873;-61
2021/09/11 06:10:05;;;;;;;9.60;8.70;;;;;;;36.00;33.01;99508.88;472686;1194;141386;-61
2021/09/11 06:20:10;;;;;;;12.90;8.00;;;;;;;37.33;29.27;99508.90;471988;1193;140995;-60
2021/09/11 06:30:14;;;;;;;10.40;8.20;;;;;;;37.84;27.12;99513.33;472871;1193;141424;-61
2021/09/11 06:40:17;;;;;;;10.80;7.60;;;;;;;39.63;25.05;99515.72;472919;1194;140291;-60
2021/09/11 06:50:20;;;;;;;8.60;6.50;;;;;;;42.73;22.50;99517.32;472165;1194;140687;-62
2021/09/11 07:00:23;;;;;;;9.40;6.20;;;;;;;44.82;20.15;99513.08;472865;1194;141691;-61
2021/09/11 07:10:27;;;;;;;7.90;6.50;;;;;;;46.42;18.47;99513.57;472788;1194;141069;-61
2021/09/11 07:20:31;;;;;;;8.70;6.00;;;;;;;47.63;16.99;99511.21;471870;1194;140609;-62
2021/09/11 07:30:36;;;;;;;7.30;5.20;;;;;;;49.21;15.96;99510.26;472805;1185;140615;-62
2021/09/11 07:40:39;;;;;;;4.40;4.10;;;;;;;50.86;14.34;99506.09;457212;1190;20001773;-60
2021/09/11 07:50:42;;;;;;;10.90;5.00;;;;;;;51.11;13.37;99515.21;472276;1190;141294;-62
2021/09/11 08:00:45;;;;;;;6.60;5.30;;;;;;;52.48;12.38;99521.72;472764;1194;141842;-62
2021/09/11 08:10:50;;;;;;;7.50;6.00;;;;;;;52.94;11.74;99523.75;472164;1192;141325;-61
2021/09/11 08:20:53;;;;;;;8.50;6.60;;;;;;;52.57;11.42;99518.33;472819;1194;141201;-62
2021/09/11 08:30:56;;;;;;;8.40;6.00;;;;;;;52.79;11.26;99514.52;472827;1194;140510;-61
2021/09/11 08:41:03;;;;;;;9.10;3.80;;;;;;;51.77;11.24;99512.52;472028;1194;141293;-61
2021/09/11 08:51:08;;;;;;;7.70;3.90;;;;;;;44.62;13.71;99506.38;461604;1194;141609;-60
2021/09/11 09:01:12;;;;;;;5.60;4.00;;;;;;;39.25;16.92;99504.34;472916;1194;141000;-60
2021/09/11 09:11:25;;;;;;;18.20;4.60;;;;;;;35.93;19.68;99504.39;471964;1194;141811;-60
2021/09/11 09:21:29;;;;;;;7.00;4.20;;;;;;;33.93;21.94;99510.20;472880;1194;141240;-60
2021/09/11 09:31:34;;;;;;;8.20;3.80;;;;;;;32.79;23.51;99509.87;471584;1193;140659;-61
2021/09/11 09:41:47;;;;;;;7.80;3.90;;;;;;;31.28;25.41;99508.92;471101;1194;142827;-61
2021/09/11 09:51:51;;;;;;;7.60;4.50;;;;;;;30.49;27.12;99511.27;469424;1192;143003;-59
2021/09/11 10:01:55;;;;;;;5.10;3.70;;;;;;;30.00;28.27;99508.83;472305;1187;141011;-59
2021/09/11 10:11:58;;;;;;;8.40;4.70;;;;;;;29.36;29.21;99507.92;472930;1194;140490;-59
2021/09/11 10:22:25;;;;;;;8.10;4.70;;;;;;;28.75;30.52;99506.56;472912;1193;141272;-59
2021/09/11 10:32:37;;;;;;;13.30;4.60;;;;;;;28.17;31.92;99506.23;464265;1194;140918;-59
2021/09/11 10:43:10;;;;;;;8.00;4.00;;;;;;;27.94;33.11;99501.88;472928;1193;141997;-59
2021/09/11 10:53:20;;;;;;;9.00;4.40;;;;;;;27.38;33.88;99495.54;472121;1194;141821;-59
2021/09/11 11:03:23;;;;;;;8.10;4.30;;;;;;;27.14;35.30;99492.11;472903;1193;141591;-59
2021/09/11 11:13:26;;;;;;;7.90;4.10;;;;;;;27.31;35.76;99486.61;472868;1190;140481;-60
2021/09/11 11:23:29;;;;;;;7.00;4.60;;;;;;;27.23;36.53;99485.87;472320;1182;142535;-60
2021/09/11 11:33:44;;;;;;;5.50;4.60;;;;;;;27.19;37.15;99478.04;470677;1193;143788;-59
2021/09/11 11:43:48;;;;;;;5.70;5.10;;;;;;;27.23;37.77;99469.48;471729;1195;161928;-59
2021/09/11 11:53:51;;;;;;;8.20;4.30;;;;;;;27.30;38.09;99461.14;456702;1192;20001295;-60
2021/09/11 12:03:55;;;;;;;9.30;4.90;;;;;;;27.30;38.13;99456.38;464935;1194;141448;-58
2021/09/11 12:14:01;;;;;;;7.50;5.40;;;;;;;27.20;38.56;99447.06;454775;1196;140655;-58
2021/09/11 12:24:06;;;;;;;7.70;4.50;;;;;;;27.11;38.74;99447.09;472745;1191;141140;-58
2021/09/11 12:34:17;;;;;;;7.30;4.90;;;;;;;27.12;39.30;99438.05;464505;1194;141209;-57
2021/09/11 12:44:22;;;;;;;5.00;4.30;;;;;;;27.09;39.21;99431.96;456061;1195;142256;-58
2021/09/11 12:54:26;;;;;;;6.50;5.30;;;;;;;27.03;39.64;99422.61;470900;1195;142359;-58
2021/09/11 13:04:30;;;;;;;5.30;4.20;;;;;;;26.94;39.80;99413.64;470043;1194;141312;-60
2021/09/11 13:14:33;;;;;;;5.30;4.30;;;;;;;26.86;39.93;99403.19;471907;1185;142463;-60
2021/09/11 13:24:36;;;;;;;5.00;4.50;;;;;;;26.71;39.76;99397.95;472365;1195;141065;-60
2021/09/11 13:34:39;;;;;;;6.90;5.90;;;;;;;26.43;40.28;99396.52;466992;1195;141480;-58
2021/09/11 13:44:48;;;;;;;6.30;5.10;;;;;;;26.45;40.56;99396.85;466956;1195;141127;-61
2021/09/11 13:54:51;;;;;;;7.80;5.90;;;;;;;26.51;40.89;99392.05;472190;1194;142425;-58
2021/09/11 14:04:54;;;;;;;8.10;5.10;;;;;;;26.85;40.85;99386.84;461326;1195;141921;-58
2021/09/11 14:14:57;;;;;;;6.50;5.50;;;;;;;27.11;40.47;99390.06;467707;1192;140701;-59
2021/09/11 14:25:00;;;;;;;7.90;5.00;;;;;;;27.27;40.10;99390.58;472789;1194;140744;-59
2021/09/11 14:35:04;;;;;;;7.10;4.60;;;;;;;27.23;39.66;99385.42;471536;1194;141921;-60
2021/09/11 14:45:10;;;;;;;9.30;6.20;;;;;;;26.94;40.24;99386.11;464971;1194;141854;-59
2021/09/11 14:55:13;;;;;;;5.30;4.80;;;;;;;26.60;41.05;99392.69;472779;1194;141041;-59
2021/09/11 15:05:17;;;;;;;15.30;7.00;;;;;;;26.30;41.70;99388.02;471814;1193;141036;-59
2021/09/11 15:15:20;;;;;;;7.10;5.50;;;;;;;26.03;42.65;99397.51;472841;1191;142259;-60
2021/09/11 15:25:25;;;;;;;7.10;6.50;;;;;;;25.75;43.32;99390.38;472762;1193;142163;-59
2021/09/11 15:35:39;;;;;;;9.50;5.10;;;;;;;25.92;43.64;99386.73;455657;1194;10003920;-58
2021/09/11 15:45:42;;;;;;;8.70;5.60;;;;;;;25.77;43.85;99386.64;456342;1194;10001718;-58
2021/09/11 15:55:46;;;;;;;8.10;6.10;;;;;;;25.36;43.76;99391.17;463264;1194;141479;-57
2021/09/11 16:05:49;;;;;;;9.10;7.00;;;;;;;25.01;45.03;99389.59;462529;1194;198450;-59
2021/09/11 16:15:52;;;;;;;8.30;6.40;;;;;;;24.56;46.56;99384.23;472866;1191;141553;-60
2021/09/11 16:25:56;;;;;;;12.40;8.70;;;;;;;24.00;48.98;99383.54;471754;1194;141410;-60
2021/09/11 16:36:00;;;;;;;11.70;8.20;;;;;;;23.46;50.56;99387.77;472582;1194;141119;-59
2021/09/11 16:46:05;;;;;;;15.60;9.30;;;;;;;22.96;52.12;99387.35;460694;1194;141328;-57
2021/09/11 16:56:09;;;;;;;21.00;14.40;;;;;;;22.42;53.78;99388.22;463829;1194;145384;-60
2021/09/11 17:06:12;;;;;;;55.90;31.80;;;;;;;21.93;55.11;99377.53;462923;1194;141403;-58
2021/09/11 17:16:15;;;;;;;64.40;45.90;;;;;;;21.47;56.14;99381.21;470274;1190;142237;-59
2021/09/11 17:26:18;;;;;;;54.70;35.90;;;;;;;21.05;57.53;99395.29;462421;1194;143889;-59
2021/09/11 17:36:22;;;;;;;69.80;50.00;;;;;;;20.65;58.77;99402.39;472168;1194;142011;-60
2021/09/11 17:46:26;;;;;;;51.30;36.30;;;;;;;20.50;59.77;99417.54;472558;1194;142153;-60
2021/09/11 17:56:30;;;;;;;14.50;11.40;;;;;;;20.51;59.71;99447.10;471814;1194;142673;-60
2021/09/11 18:06:33;;;;;;;10.90;9.70;;;;;;;20.73;58.43;99439.86;467211;1194;142783;-59
2021/09/11 18:16:37;;;;;;;10.20;9.10;;;;;;;20.79;57.99;99456.56;465402;1194;143011;-59
2021/09/11 18:26:41;;;;;;;10.90;9.00;;;;;;;20.62;58.08;99470.28;459850;1190;141865;-59
2021/09/11 18:36:43;;;;;;;10.10;8.70;;;;;;;20.39;58.31;99479.66;465077;1194;142284;-61
2021/09/11 18:46:47;;;;;;;10.40;6.90;;;;;;;20.18;58.48;99486.64;471871;1194;167074;-58
2021/09/11 18:56:50;;;;;;;11.20;8.50;;;;;;;19.99;58.63;99481.02;468218;1194;141537;-59
2021/09/11 19:06:55;;;;;;;12.50;7.80;;;;;;;19.73;58.98;99481.17;472634;1191;141421;-59
2021/09/11 19:16:58;;;;;;;8.50;7.70;;;;;;;19.47;59.90;99480.99;471816;1194;142400;-59
2021/09/11 19:27:02;;;;;;;12.90;9.70;;;;;;;19.19;60.81;99479.46;471219;1194;141983;-58
2021/09/11 19:37:06;;;;;;;9.50;8.50;;;;;;;18.90;61.53;99478.91;471505;1194;143426;-60
2021/09/11 19:47:09;;;;;;;9.00;8.10;;;;;;;18.58;62.31;99478.00;472080;1191;145462;-60
2021/09/11 19:57:13;;;;;;;13.20;11.70;;;;;;;18.25;63.03;99471.65;456609;1194;10001855;-60
2021/09/11 20:07:17;;;;;;;13.80;12.30;;;;;;;18.01;63.62;99467.27;468634;1194;142510;-58
2021/09/11 20:17:20;;;;;;;13.40;12.20;;;;;;;17.70;64.28;99469.64;464806;1194;142285;-58
2021/09/11 20:27:23;;;;;;;18.00;16.10;;;;;;;17.44;65.05;99466.83;462900;1194;141697;-60
2021/09/11 20:37:27;;;;;;;14.80;12.70;;;;;;;17.20;65.47;99470.13;456159;1199;146267;-57
2021/09/11 20:47:33;;;;;;;13.70;12.40;;;;;;;16.95;66.20;99472.62;467521;1191;142132;-58
2021/09/11 20:57:37;;;;;;;17.30;12.70;;;;;;;16.76;66.64;99470.81;472716;1194;143836;-58
2021/09/11 21:07:40;;;;;;;14.80;13.30;;;;;;;16.64;66.92;99478.95;468558;1194;141997;-58
2021/09/11 21:17:46;;;;;;;15.30;13.10;;;;;;;16.51;67.38;99491.41;466943;1194;141390;-57
2021/09/11 21:27:49;;;;;;;16.30;14.60;;;;;;;16.37;67.96;99504.00;472716;1193;142737;-57
2021/09/11 21:37:53;;;;;;;17.90;15.60;;;;;;;16.19;68.38;99503.79;471972;1194;142457;-57
2021/09/11 21:47:56;;;;;;;20.40;16.80;;;;;;;16.06;68.82;99503.36;472779;1194;142655;-57
2021/09/11 21:58:01;;;;;;;17.10;15.40;;;;;;;15.94;69.14;99503.70;472751;1193;143648;-58
2021/09/11 22:08:04;;;;;;;19.00;16.90;;;;;;;15.74;69.19;99499.16;471920;1194;145191;-57
2021/09/11 22:18:09;;;;;;;21.40;15.50;;;;;;;15.66;69.76;99503.92;472725;1194;142648;-58
2021/09/11 22:28:12;;;;;;;17.80;14.80;;;;;;;15.65;69.87;99500.55;472808;1194;142043;-58
2021/09/11 22:38:16;;;;;;;16.20;14.30;;;;;;;15.63;69.83;99495.52;471884;1194;142367;-58
2021/09/11 22:48:20;;;;;;;16.70;14.10;;;;;;;15.61;69.81;99497.16;468925;1194;142090;-58
2021/09/11 22:58:23;;;;;;;14.70;13.30;;;;;;;15.51;69.79;99499.05;470012;1194;141798;-58
2021/09/11 23:08:26;;;;;;;19.00;15.30;;;;;;;15.38;69.66;99495.61;466319;1194;143436;-58
2021/09/11 23:18:29;;;;;;;15.80;14.10;;;;;;;15.23;69.78;99499.85;472818;1194;142821;-58
2021/09/11 23:28:32;;;;;;;22.60;15.00;;;;;;;15.02;69.91;99505.52;470413;1194;142630;-57
2021/09/11 23:38:36;;;;;;;18.10;16.20;;;;;;;14.79;70.13;99498.39;466578;1194;142312;-58
2021/09/11 23:48:39;;;;;;;23.70;20.80;;;;;;;14.61;70.46;99490.50;472607;1194;142834;-58
2021/09/11 23:58:42;;;;;;;19.10;17.10;;;;;;;14.48;71.00;99485.58;469808;1194;142004;-57
